Time;durP1;ratioP1;P1;durP2;ratioP2;P2;SDS_P1;SDS_P2;PMS_P1;PMS_P2;Temp;Humidity;BMP_temperature;BMP_pressure;BME280_temperature;BME280_humidity;BME280_pressure;Samples;Min_cycle;Max_cycle;Signal;HPM_P1;HPM_P2
2023/12/23 00:00:00;;;;;;;63.92;5.55;;;;;;;;;;5021573;28;20142;-80
2023/12/23 00:02:32;;;;;;;65.47;5.93;;;;;;;;;;5010975;28;20060;-80
2023/12/23 00:04:59;;;;;;;39.08;3.78;;;;;;;;;;4995555;28;20046;-79
2023/12/23 00:07:26;;;;;;;86.22;7.07;;;;;;;;;;4997960;28;20107;-80
2023/12/23 00:09:53;;;;;;;88.00;6.78;;;;;;;;;;5000865;28;20088;-80
2023/12/23 00:12:19;;;;;;;94.38;6.97;;;;;;;;;;5003848;28;20033;-80
2023/12/23 00:14:46;;;;;;;55.08;5.60;;;;;;;;;;5006670;28;20119;-80
2023/12/23 00:17:12;;;;;;;49.03;4.70;;;;;;;;;;5009697;28;20145;-80
2023/12/23 00:19:39;;;;;;;50.28;4.43;;;;;;;;;;5012973;28;20038;-80
2023/12/23 00:22:06;;;;;;;69.60;5.82;;;;;;;;;;5014075;28;20039;-80
2023/12/23 00:24:34;;;;;;;56.83;4.70;;;;;;;;;;5017375;28;20458;-80
2023/12/23 00:27:00;;;;;;;27.45;3.83;;;;;;;;;;5020348;28;20120;-80
2023/12/23 00:29:27;;;;;;;73.88;6.35;;;;;;;;;;5022537;28;20037;-80
2023/12/23 00:31:54;;;;;;;53.15;5.25;;;;;;;;;;5024724;28;20057;-80
2023/12/23 00:34:20;;;;;;;35.60;3.65;;;;;;;;;;5040855;28;20060;-80
2023/12/23 00:36:47;;;;;;;39.15;3.85;;;;;;;;;;5008394;28;20070;-80
2023/12/23 00:39:15;;;;;;;67.63;5.45;;;;;;;;;;5010816;28;20500;-80
2023/12/23 00:41:42;;;;;;;47.78;4.50;;;;;;;;;;4997283;28;20860;-80
2023/12/23 00:44:08;;;;;;;84.28;6.10;;;;;;;;;;5015270;28;20140;-81
2023/12/23 00:46:35;;;;;;;54.47;4.72;;;;;;;;;;5005072;28;20077;-80
2023/12/23 00:49:03;;;;;;;34.33;3.63;;;;;;;;;;5033879;28;20054;-80
2023/12/23 00:51:30;;;;;;;39.83;3.47;;;;;;;;;;5007193;28;20038;-80
2023/12/23 00:53:57;;;;;;;89.82;7.15;;;;;;;;;;5012373;28;20408;-79
2023/12/23 00:56:24;;;;;;;37.60;3.85;;;;;;;;;;5012316;28;20037;-80
2023/12/23 00:58:51;;;;;;;54.15;5.57;;;;;;;;;;5015398;28;20049;-80
2023/12/23 01:01:17;;;;;;;58.85;5.32;;;;;;;;;;5020613;28;20037;-80
2023/12/23 01:03:44;;;;;;;47.97;4.85;;;;;;;;;;5022061;28;20473;-80
2023/12/23 01:06:11;;;;;;;39.15;3.00;;;;;;;;;;5020928;28;20604;-80
2023/12/23 01:08:38;;;;;;;46.40;3.65;;;;;;;;;;5021016;28;20065;-80
2023/12/23 01:11:04;;;;;;;46.60;4.60;;;;;;;;;;5004544;28;20486;-80
2023/12/23 01:13:31;;;;;;;67.38;5.60;;;;;;;;;;4993830;28;20054;-80
2023/12/23 01:15:58;;;;;;;89.55;7.65;;;;;;;;;;4997617;28;20092;-80
2023/12/23 01:18:24;;;;;;;45.15;3.75;;;;;;;;;;5000988;28;20076;-80
2023/12/23 01:20:51;;;;;;;44.22;4.10;;;;;;;;;;5003760;28;20478;-80
2023/12/23 01:23:18;;;;;;;78.78;5.47;;;;;;;;;;5005601;28;20949;-80
2023/12/23 01:25:45;;;;;;;56.17;4.88;;;;;;;;;;5024521;28;20065;-80
2023/12/23 01:28:11;;;;;;;49.78;4.97;;;;;;;;;;5011159;28;20038;-80
2023/12/23 01:30:40;;;;;;;74.47;5.68;;;;;;;;;;5015332;28;20116;-80
2023/12/23 01:33:07;;;;;;;41.55;3.72;;;;;;;;;;5014988;28;20132;-80
2023/12/23 01:35:36;;;;;;;56.38;4.00;;;;;;;;;;5019153;28;20505;-80
2023/12/23 01:38:03;;;;;;;54.75;4.18;;;;;;;;;;5005340;28;20862;-80
2023/12/23 01:40:34;;;;;;;47.38;4.05;;;;;;;;;;5025456;28;20042;-80
2023/12/23 01:43:01;;;;;;;35.78;2.92;;;;;;;;;;5026545;28;20112;-80
2023/12/23 01:45:27;;;;;;;78.30;5.40;;;;;;;;;;5008197;28;20050;-79
2023/12/23 01:47:55;;;;;;;44.88;3.88;;;;;;;;;;5009088;28;20054;-79
2023/12/23 01:50:24;;;;;;;43.25;5.00;;;;;;;;;;4997739;28;20066;-80
2023/12/23 01:52:52;;;;;;;37.45;3.80;;;;;;;;;;5000085;28;20052;-80
2023/12/23 01:55:19;;;;;;;50.13;4.18;;;;;;;;;;5002730;28;20490;-80
2023/12/23 01:57:46;;;;;;;43.53;3.72;;;;;;;;;;5021492;28;20046;-79
2023/12/23 02:03:02;;;;;;;37.83;3.15;;;;;;;;;;4837948;26;20046;-83
2023/12/23 02:05:29;;;;;;;37.42;3.28;;;;;;;;;;4984141;28;20047;-83
2023/12/23 02:07:56;;;;;;;51.72;4.03;;;;;;;;;;4977838;28;20158;-83
2023/12/23 02:10:23;;;;;;;61.65;4.90;;;;;;;;;;4988939;28;20038;-84
2023/12/23 02:13:09;;;;;;;24.52;3.55;;;;;;;;;;4992314;28;20043;-83
2023/12/23 02:15:41;;;;;;;38.80;4.18;;;;;;;;;;4990320;28;20069;-84
2023/12/23 02:18:07;;;;;;;22.98;2.55;;;;;;;;;;4993666;28;20065;-83
2023/12/23 02:20:34;;;;;;;44.05;3.45;;;;;;;;;;4992414;28;20587;-83
2023/12/23 02:23:01;;;;;;;42.00;3.20;;;;;;;;;;4988857;28;20445;-83
2023/12/23 02:25:27;;;;;;;45.17;3.95;;;;;;;;;;4989120;28;20836;-83
2023/12/23 02:27:58;;;;;;;72.18;5.90;;;;;;;;;;4991963;28;20042;-83
2023/12/23 02:30:25;;;;;;;52.45;4.05;;;;;;;;;;4990401;28;20096;-83
2023/12/23 02:32:52;;;;;;;33.38;4.07;;;;;;;;;;4990494;28;20481;-83
2023/12/23 02:35:22;;;;;;;43.15;4.15;;;;;;;;;;4985541;28;20145;-83
2023/12/23 02:37:49;;;;;;;81.30;6.50;;;;;;;;;;4989129;28;20053;-83
2023/12/23 02:40:16;;;;;;;18.98;2.83;;;;;;;;;;4990004;28;20046;-83
2023/12/23 02:42:42;;;;;;;44.60;3.65;;;;;;;;;;4990012;28;20042;-84
2023/12/23 02:45:09;;;;;;;80.38;6.20;;;;;;;;;;4982569;28;20046;-83
2023/12/23 02:47:35;;;;;;;20.48;2.35;;;;;;;;;;4976728;28;20097;-85
2023/12/23 02:50:02;;;;;;;62.78;5.75;;;;;;;;;;4987287;28;20042;-84
2023/12/23 02:52:29;;;;;;;60.17;5.68;;;;;;;;;;4989776;28;20050;-84
2023/12/23 02:54:56;;;;;;;55.17;4.40;;;;;;;;;;4990065;28;20113;-84
2023/12/23 02:57:22;;;;;;;29.13;3.17;;;;;;;;;;4989937;28;20046;-83
2023/12/23 02:59:49;;;;;;;38.05;3.55;;;;;;;;;;4989499;28;20528;-84
2023/12/23 03:02:15;;;;;;;31.40;3.08;;;;;;;;;;4991170;28;20167;-84
2023/12/23 03:04:43;;;;;;;40.25;3.75;;;;;;;;;;4990710;28;20035;-84
2023/12/23 03:07:09;;;;;;;56.78;4.82;;;;;;;;;;4985884;28;20102;-84
2023/12/23 03:09:36;;;;;;;39.00;3.45;;;;;;;;;;4982792;28;20046;-84
2023/12/23 03:12:02;;;;;;;40.92;3.67;;;;;;;;;;4980333;28;20035;-84
2023/12/23 03:14:29;;;;;;;79.82;6.30;;;;;;;;;;4976957;28;20046;-83
2023/12/23 03:16:55;;;;;;;58.03;4.68;;;;;;;;;;4977182;28;20101;-84
2023/12/23 03:19:22;;;;;;;29.30;2.72;;;;;;;;;;4977069;28;20047;-84
2023/12/23 03:21:48;;;;;;;34.15;3.17;;;;;;;;;;4978282;28;20046;-84
2023/12/23 03:24:15;;;;;;;63.13;5.00;;;;;;;;;;4990425;28;20038;-84
2023/12/23 03:26:41;;;;;;;30.73;3.63;;;;;;;;;;4987860;28;20035;-84
2023/12/23 03:29:09;;;;;;;48.53;3.83;;;;;;;;;;4986998;28;20125;-84
2023/12/23 03:31:37;;;;;;;53.70;3.88;;;;;;;;;;4990498;28;20554;-84
2023/12/23 03:34:04;;;;;;;48.75;4.00;;;;;;;;;;4988467;28;20113;-85
2023/12/23 03:36:30;;;;;;;64.43;5.25;;;;;;;;;;4988317;28;20038;-84
2023/12/23 03:38:58;;;;;;;58.97;4.45;;;;;;;;;;4989361;28;20059;-84
2023/12/23 03:41:25;;;;;;;25.75;2.47;;;;;;;;;;4988610;28;20072;-84
2023/12/23 03:43:51;;;;;;;72.20;6.07;;;;;;;;;;4983739;28;20177;-84
2023/12/23 03:46:20;;;;;;;57.15;4.85;;;;;;;;;;4986124;28;20070;-84
2023/12/23 03:48:47;;;;;;;18.38;2.20;;;;;;;;;;4990423;28;20042;-84
2023/12/23 03:51:14;;;;;;;33.83;3.15;;;;;;;;;;4990056;28;20057;-84
2023/12/23 03:53:42;;;;;;;33.30;2.78;;;;;;;;;;4987782;28;20042;-84
2023/12/23 03:56:08;;;;;;;37.42;3.15;;;;;;;;;;4987102;28;20552;-84
2023/12/23 03:58:35;;;;;;;47.53;3.90;;;;;;;;;;4973194;28;20073;-84
2023/12/23 04:01:02;;;;;;;76.63;5.30;;;;;;;;;;4970650;28;20058;-84
2023/12/23 04:03:29;;;;;;;38.58;3.83;;;;;;;;;;4988506;28;20504;-84
2023/12/23 04:05:56;;;;;;;59.92;4.65;;;;;;;;;;4988003;28;20049;-84
2023/12/23 04:08:23;;;;;;;102.05;7.28;;;;;;;;;;4987063;28;20066;-85
2023/12/23 04:10:49;;;;;;;23.92;3.80;;;;;;;;;;4990002;28;20560;-84
2023/12/23 04:13:16;;;;;;;38.28;4.00;;;;;;;;;;4988443;28;20070;-84
2023/12/23 04:15:43;;;;;;;50.97;3.72;;;;;;;;;;4989020;28;20568;-84
2023/12/23 04:18:10;;;;;;;53.05;4.35;;;;;;;;;;4986782;28;20050;-85
2023/12/23 04:20:37;;;;;;;61.97;4.55;;;;;;;;;;4988876;28;20053;-84
2023/12/23 04:23:03;;;;;;;72.82;5.15;;;;;;;;;;4989313;28;20657;-84
2023/12/23 04:25:30;;;;;;;34.72;3.22;;;;;;;;;;4989363;28;20073;-84
2023/12/23 04:27:56;;;;;;;82.93;5.50;;;;;;;;;;4975955;28;20102;-84
2023/12/23 04:30:23;;;;;;;64.20;4.72;;;;;;;;;;4973450;28;20061;-84
2023/12/23 04:32:50;;;;;;;23.52;2.92;;;;;;;;;;4971666;28;20494;-84
2023/12/23 04:35:17;;;;;;;41.50;3.60;;;;;;;;;;4971459;28;20074;-85
2023/12/23 04:37:45;;;;;;;61.40;4.63;;;;;;;;;;4986822;28;20049;-84
2023/12/23 04:40:11;;;;;;;10.27;1.52;;;;;;;;;;4990700;28;20050;-85
2023/12/23 04:42:39;;;;;;;30.05;2.75;;;;;;;;;;4988726;28;20046;-85
2023/12/23 04:45:09;;;;;;;73.10;4.85;;;;;;;;;;4984324;28;20387;-85
2023/12/23 04:47:37;;;;;;;28.85;2.42;;;;;;;;;;4990141;28;20074;-85
2023/12/23 04:50:04;;;;;;;74.13;5.60;;;;;;;;;;4993314;28;20085;-84
2023/12/23 04:52:31;;;;;;;98.20;6.60;;;;;;;;;;4992152;28;20104;-84
2023/12/23 04:54:59;;;;;;;25.17;2.03;;;;;;;;;;4992347;28;20520;-84
2023/12/23 04:57:27;;;;;;;37.67;3.45;;;;;;;;;;4992908;28;20125;-84
2023/12/23 04:59:54;;;;;;;50.40;4.03;;;;;;;;;;5007293;28;20497;-86
2023/12/23 05:02:20;;;;;;;31.25;2.67;;;;;;;;;;4985893;28;20137;-84
2023/12/23 05:04:47;;;;;;;28.80;2.67;;;;;;;;;;4992986;28;20042;-84
2023/12/23 05:07:13;;;;;;;65.43;4.85;;;;;;;;;;4996390;28;20133;-85
2023/12/23 05:09:40;;;;;;;38.92;2.70;;;;;;;;;;4997146;28;20046;-85
2023/12/23 05:12:07;;;;;;;33.83;2.92;;;;;;;;;;4995628;28;20046;-84
2023/12/23 05:14:33;;;;;;;82.05;6.50;;;;;;;;;;4992742;28;20050;-85
2023/12/23 05:17:00;;;;;;;30.95;2.83;;;;;;;;;;4995413;28;20050;-84
2023/12/23 05:19:26;;;;;;;80.47;5.35;;;;;;;;;;4992157;28;20042;-84
2023/12/23 05:21:53;;;;;;;68.72;4.95;;;;;;;;;;4994353;28;20064;-84
2023/12/23 05:24:20;;;;;;;37.38;3.17;;;;;;;;;;4994217;28;20460;-85
2023/12/23 05:26:47;;;;;;;28.98;3.13;;;;;;;;;;4984465;28;20192;-84
2023/12/23 05:29:13;;;;;;;62.42;4.47;;;;;;;;;;4986634;28;20073;-84
2023/12/23 05:31:40;;;;;;;32.17;2.58;;;;;;;;;;4982767;28;20042;-85
2023/12/23 05:34:06;;;;;;;46.33;3.75;;;;;;;;;;4980211;28;20050;-85
2023/12/23 05:36:33;;;;;;;61.33;4.65;;;;;;;;;;4979839;28;20157;-85
2023/12/23 05:39:00;;;;;;;44.17;3.55;;;;;;;;;;4979148;28;20089;-85
2023/12/23 05:41:26;;;;;;;49.55;4.07;;;;;;;;;;4982406;28;20061;-84
2023/12/23 05:43:53;;;;;;;62.60;4.93;;;;;;;;;;4993275;28;20684;-84
2023/12/23 05:46:19;;;;;;;22.58;2.50;;;;;;;;;;4994205;28;20509;-84
2023/12/23 05:48:46;;;;;;;22.02;2.15;;;;;;;;;;4995202;28;20083;-84
2023/12/23 05:51:12;;;;;;;48.20;3.75;;;;;;;;;;4990309;28;20042;-84
2023/12/23 05:53:39;;;;;;;40.53;2.92;;;;;;;;;;4994056;28;20038;-85
2023/12/23 05:56:06;;;;;;;39.35;5.07;;;;;;;;;;4992361;28;20049;-84
2023/12/23 05:58:33;;;;;;;67.60;5.45;;;;;;;;;;4987496;28;20064;-84
2023/12/23 06:01:00;;;;;;;69.65;5.55;;;;;;;;;;4993927;28;20081;-84
2023/12/23 06:03:27;;;;;;;46.15;3.58;;;;;;;;;;4995895;28;20109;-85
2023/12/23 06:05:54;;;;;;;41.13;3.67;;;;;;;;;;4994829;28;20185;-84
2023/12/23 06:08:22;;;;;;;44.05;3.88;;;;;;;;;;4994735;28;20050;-84
2023/12/23 06:10:48;;;;;;;58.72;5.32;;;;;;;;;;4993607;28;20737;-84
2023/12/23 06:13:24;;;;;;;62.03;5.20;;;;;;;;;;4993264;28;20050;-84
2023/12/23 06:15:50;;;;;;;33.65;3.38;;;;;;;;;;4986150;28;20556;-84
2023/12/23 06:18:17;;;;;;;16.88;1.95;;;;;;;;;;4989749;28;20121;-84
2023/12/23 06:20:44;;;;;;;34.70;3.40;;;;;;;;;;4990234;28;20042;-84
2023/12/23 06:23:10;;;;;;;64.05;4.80;;;;;;;;;;4993696;28;20402;-84
2023/12/23 06:25:37;;;;;;;43.05;3.53;;;;;;;;;;4994159;28;20047;-84
2023/12/23 06:28:03;;;;;;;64.65;5.20;;;;;;;;;;4994110;28;20060;-84
2023/12/23 06:30:30;;;;;;;44.53;4.13;;;;;;;;;;4993856;28;20571;-84
2023/12/23 06:32:56;;;;;;;47.10;4.00;;;;;;;;;;4993363;28;20068;-84
2023/12/23 06:35:23;;;;;;;37.38;4.25;;;;;;;;;;4993519;28;20038;-84
2023/12/23 06:37:50;;;;;;;54.60;4.57;;;;;;;;;;4993009;28;20034;-84
2023/12/23 06:40:17;;;;;;;38.47;4.25;;;;;;;;;;4993751;28;20109;-85
2023/12/23 06:42:43;;;;;;;55.25;4.75;;;;;;;;;;4993439;28;20153;-85
2023/12/23 06:45:11;;;;;;;64.15;5.07;;;;;;;;;;4992931;28;20034;-84
2023/12/23 06:47:38;;;;;;;29.77;3.88;;;;;;;;;;4988582;28;20070;-85
2023/12/23 06:50:05;;;;;;;97.18;6.03;;;;;;;;;;4989139;28;20050;-86
2023/12/23 06:52:31;;;;;;;94.63;7.65;;;;;;;;;;4992504;28;20042;-85
2023/12/23 06:54:58;;;;;;;55.85;5.15;;;;;;;;;;4995626;28;20058;-84
2023/12/23 06:57:24;;;;;;;46.85;5.18;;;;;;;;;;4992839;28;20096;-84
2023/12/23 06:59:52;;;;;;;59.08;5.32;;;;;;;;;;4991782;28;20054;-84
2023/12/23 07:02:18;;;;;;;36.90;3.50;;;;;;;;;;4989469;28;20058;-84
2023/12/23 07:04:46;;;;;;;33.05;3.90;;;;;;;;;;4988756;28;20474;-84
2023/12/23 07:07:12;;;;;;;74.85;6.63;;;;;;;;;;4990401;28;20042;-84
2023/12/23 07:09:42;;;;;;;23.42;2.35;;;;;;;;;;4991404;28;20042;-84
2023/12/23 07:12:09;;;;;;;32.42;3.60;;;;;;;;;;4992857;28;20046;-85
2023/12/23 07:14:36;;;;;;;68.75;6.20;;;;;;;;;;4992299;28;20050;-87
2023/12/23 07:17:02;;;;;;;42.15;3.80;;;;;;;;;;4992495;28;20078;-85
2023/12/23 07:19:30;;;;;;;62.67;4.75;;;;;;;;;;4977321;28;20486;-84
2023/12/23 07:21:56;;;;;;;60.65;4.90;;;;;;;;;;4975161;28;20043;-85
2023/12/23 07:24:23;;;;;;;54.13;5.72;;;;;;;;;;4974836;28;20035;-85
2023/12/23 07:26:49;;;;;;;28.45;3.05;;;;;;;;;;4982146;28;20095;-84
2023/12/23 07:29:16;;;;;;;71.90;5.85;;;;;;;;;;4989009;28;20374;-85
2023/12/23 07:31:43;;;;;;;37.78;3.53;;;;;;;;;;4995502;28;20049;-84
2023/12/23 07:34:10;;;;;;;51.05;4.20;;;;;;;;;;4992169;28;20042;-85
2023/12/23 07:36:36;;;;;;;60.53;5.18;;;;;;;;;;4992145;28;20046;-85
2023/12/23 07:39:05;;;;;;;40.08;4.03;;;;;;;;;;4992049;28;20062;-85
2023/12/23 07:41:32;;;;;;;52.55;4.30;;;;;;;;;;4994013;28;20577;-84
2023/12/23 07:43:59;;;;;;;114.45;8.05;;;;;;;;;;4992437;28;20077;-85
2023/12/23 07:46:27;;;;;;;58.38;5.50;;;;;;;;;;4987044;28;20485;-84
2023/12/23 07:48:54;;;;;;;35.95;3.25;;;;;;;;;;4989886;28;20134;-84
2023/12/23 07:51:21;;;;;;;33.08;3.50;;;;;;;;;;4989284;28;20121;-84
2023/12/23 07:53:49;;;;;;;32.60;3.13;;;;;;;;;;4987375;28;20125;-84
2023/12/23 07:56:17;;;;;;;48.70;4.00;;;;;;;;;;4989380;28;20502;-84
2023/12/23 07:58:43;;;;;;;42.22;4.65;;;;;;;;;;4972995;28;20046;-84
2023/12/23 08:01:10;;;;;;;38.70;4.07;;;;;;;;;;4972676;28;20057;-85
2023/12/23 08:03:36;;;;;;;41.70;3.85;;;;;;;;;;4980505;28;20054;-85
2023/12/23 08:06:03;;;;;;;68.85;5.13;;;;;;;;;;4997177;28;20038;-88
2023/12/23 08:08:31;;;;;;;54.25;4.38;;;;;;;;;;4988623;28;20042;-83
2023/12/23 08:10:58;;;;;;;43.53;4.55;;;;;;;;;;4984997;28;20104;-85
2023/12/23 08:13:26;;;;;;;71.88;5.47;;;;;;;;;;4982796;28;20043;-82
2023/12/23 08:15:53;;;;;;;54.47;4.90;;;;;;;;;;4988537;28;20125;-82
2023/12/23 08:18:20;;;;;;;30.23;3.13;;;;;;;;;;4990748;28;20050;-84
2023/12/23 08:20:46;;;;;;;64.20;5.45;;;;;;;;;;4983795;28;20540;-85
2023/12/23 08:23:13;;;;;;;40.25;3.85;;;;;;;;;;4982394;28;20065;-84
2023/12/23 08:25:40;;;;;;;62.20;5.57;;;;;;;;;;4979699;28;20043;-85
2023/12/23 08:28:07;;;;;;;45.35;4.18;;;;;;;;;;4981741;28;20049;-86
2023/12/23 08:30:33;;;;;;;48.45;4.85;;;;;;;;;;4980909;28;20039;-86
2023/12/23 08:33:00;;;;;;;43.58;4.35;;;;;;;;;;4983104;28;20046;-86
2023/12/23 08:35:27;;;;;;;69.15;6.07;;;;;;;;;;4995165;28;20053;-85
2023/12/23 08:37:54;;;;;;;61.17;4.88;;;;;;;;;;4995503;28;20141;-86
2023/12/23 08:40:20;;;;;;;30.08;2.97;;;;;;;;;;4993819;28;20456;-86
2023/12/23 08:42:47;;;;;;;63.08;5.10;;;;;;;;;;4989152;28;20042;-85
2023/12/23 08:45:14;;;;;;;32.13;4.55;;;;;;;;;;4992803;28;20066;-87
2023/12/23 08:47:41;;;;;;;60.47;5.28;;;;;;;;;;4993156;28;20705;-85
2023/12/23 08:50:08;;;;;;;72.90;5.20;;;;;;;;;;4985816;28;20042;-84
2023/12/23 08:52:35;;;;;;;64.20;5.55;;;;;;;;;;4985416;28;20476;-84
2023/12/23 08:55:02;;;;;;;34.63;3.22;;;;;;;;;;4992418;28;20540;-83
2023/12/23 08:57:29;;;;;;;75.55;5.82;;;;;;;;;;4993342;28;20720;-84
2023/12/23 08:59:55;;;;;;;44.22;4.68;;;;;;;;;;4992954;28;20100;-84
2023/12/23 09:02:23;;;;;;;25.85;2.92;;;;;;;;;;4987233;28;20525;-85
2023/12/23 09:04:53;;;;;;;54.20;4.40;;;;;;;;;;4992440;28;20738;-85
2023/12/23 09:07:20;;;;;;;40.85;3.85;;;;;;;;;;4992681;28;20046;-81
2023/12/23 09:09:46;;;;;;;61.95;5.13;;;;;;;;;;4992661;28;20400;-81
2023/12/23 09:12:13;;;;;;;48.88;4.88;;;;;;;;;;4991471;28;20493;-83
2023/12/23 09:14:39;;;;;;;33.75;4.30;;;;;;;;;;4991430;28;20122;-82
2023/12/23 09:17:06;;;;;;;53.75;4.72;;;;;;;;;;4991646;28;20445;-85
2023/12/23 09:19:32;;;;;;;64.07;4.63;;;;;;;;;;4992081;28;20038;-84
2023/12/23 09:21:59;;;;;;;53.10;4.85;;;;;;;;;;4986656;28;20053;-86
2023/12/23 09:24:26;;;;;;;32.45;4.10;;;;;;;;;;4985082;28;20050;-87
2023/12/23 09:26:53;;;;;;;48.20;4.00;;;;;;;;;;4983577;28;20784;-87
2023/12/23 09:29:19;;;;;;;49.95;4.78;;;;;;;;;;4989628;28;20101;-87
2023/12/23 09:31:46;;;;;;;36.30;3.40;;;;;;;;;;4991126;28;20038;-87
2023/12/23 09:34:12;;;;;;;43.47;3.97;;;;;;;;;;4991196;28;20046;-88
2023/12/23 09:36:39;;;;;;;51.83;4.57;;;;;;;;;;4981878;28;20101;-88
2023/12/23 09:39:05;;;;;;;90.07;6.80;;;;;;;;;;4977931;28;20190;-82
2023/12/23 09:41:32;;;;;;;36.67;3.83;;;;;;;;;;4991552;28;20379;-83
2023/12/23 09:43:58;;;;;;;96.72;7.85;;;;;;;;;;4975682;28;20149;-82
2023/12/23 09:46:26;;;;;;;33.30;3.55;;;;;;;;;;4984203;28;20125;-86
2023/12/23 09:48:52;;;;;;;48.08;3.40;;;;;;;;;;4991052;28;20046;-87
2023/12/23 09:51:21;;;;;;;76.68;5.30;;;;;;;;;;4990441;28;20042;-87
2023/12/23 09:53:50;;;;;;;20.63;2.60;;;;;;;;;;4990549;28;20099;-86
2023/12/23 09:56:17;;;;;;;41.80;3.72;;;;;;;;;;4989076;28;20724;-87
2023/12/23 09:58:44;;;;;;;79.55;5.68;;;;;;;;;;4989333;28;20057;-87
2023/12/23 10:01:11;;;;;;;93.13;6.40;;;;;;;;;;4987815;28;20050;-87
2023/12/23 10:03:37;;;;;;;42.88;3.92;;;;;;;;;;4988881;28;20496;-87
2023/12/23 10:06:04;;;;;;;47.28;4.15;;;;;;;;;;4990348;28;20766;-87
2023/12/23 10:08:31;;;;;;;57.88;4.68;;;;;;;;;;4990332;28;20425;-88
2023/12/23 10:10:57;;;;;;;47.88;4.15;;;;;;;;;;4989273;28;20482;-87
2023/12/23 10:13:24;;;;;;;68.85;4.75;;;;;;;;;;4991297;28;20049;-87
2023/12/23 10:15:51;;;;;;;36.60;3.33;;;;;;;;;;4991034;28;20178;-87
2023/12/23 10:18:17;;;;;;;33.40;3.80;;;;;;;;;;4988449;28;20555;-87
2023/12/23 10:20:45;;;;;;;70.30;5.85;;;;;;;;;;4990325;28;20489;-87
2023/12/23 10:23:11;;;;;;;37.67;3.88;;;;;;;;;;4990861;28;20125;-86
2023/12/23 10:25:41;;;;;;;55.47;4.35;;;;;;;;;;4991199;28;20046;-87
2023/12/23 10:28:09;;;;;;;37.45;3.40;;;;;;;;;;4991040;28;20057;-87
2023/12/23 10:30:40;;;;;;;73.15;5.53;;;;;;;;;;4990401;28;20482;-86
2023/12/23 10:33:07;;;;;;;69.30;5.60;;;;;;;;;;4990568;28;20058;-86
2023/12/23 10:35:38;;;;;;;22.98;2.28;;;;;;;;;;4989034;28;20042;-86
2023/12/23 10:38:08;;;;;;;34.35;3.97;;;;;;;;;;4990656;28;20057;-87
2023/12/23 10:40:35;;;;;;;90.10;6.97;;;;;;;;;;4982205;28;20046;-87
2023/12/23 10:43:01;;;;;;;55.38;4.80;;;;;;;;;;4990314;28;20109;-87
2023/12/23 10:45:29;;;;;;;29.77;3.08;;;;;;;;;;4989642;28;20061;-87
2023/12/23 10:47:59;;;;;;;66.32;5.40;;;;;;;;;;4990464;28;20414;-86
2023/12/23 10:50:26;;;;;;;46.45;4.93;;;;;;;;;;4987309;28;20030;-87
2023/12/23 10:52:53;;;;;;;49.03;4.70;;;;;;;;;;4985854;28;20050;-87
2023/12/23 10:55:23;;;;;;;69.18;6.30;;;;;;;;;;4990457;28;20046;-86
2023/12/23 10:57:51;;;;;;;35.45;4.53;;;;;;;;;;4989077;28;20133;-86
2023/12/23 11:00:18;;;;;;;27.63;2.83;;;;;;;;;;4989899;28;20041;-86
2023/12/23 11:02:45;;;;;;;57.88;5.05;;;;;;;;;;4989814;28;20469;-87
2023/12/23 11:05:12;;;;;;;62.70;6.35;;;;;;;;;;4990143;28;20168;-86
2023/12/23 11:07:45;;;;;;;45.05;4.78;;;;;;;;;;4990317;28;20049;-86
2023/12/23 11:10:13;;;;;;;45.42;4.93;;;;;;;;;;4990165;28;20134;-86
2023/12/23 11:12:41;;;;;;;38.50;4.20;;;;;;;;;;4989665;28;20105;-87
2023/12/23 11:15:09;;;;;;;43.72;5.18;;;;;;;;;;4989570;28;20074;-86
2023/12/23 11:17:40;;;;;;;63.70;5.40;;;;;;;;;;4989982;28;20104;-87
2023/12/23 11:20:07;;;;;;;33.80;3.85;;;;;;;;;;4990129;28;20065;-86
2023/12/23 11:22:38;;;;;;;60.55;4.93;;;;;;;;;;4986054;28;20423;-86
2023/12/23 11:25:23;;;;;;;29.30;3.65;;;;;;;;;;4982189;28;20086;-87
2023/12/23 11:27:50;;;;;;;47.08;4.65;;;;;;;;;;4989573;28;20526;-87
2023/12/23 11:30:18;;;;;;;44.05;4.47;;;;;;;;;;4989403;28;20507;-86
2023/12/23 11:32:44;;;;;;;58.42;5.18;;;;;;;;;;4989759;28;20054;-87
2023/12/23 11:35:12;;;;;;;50.83;5.32;;;;;;;;;;4989426;28;20432;-87
2023/12/23 11:37:51;;;;;;;34.67;3.92;;;;;;;;;;4987828;28;20454;-87
2023/12/23 11:40:18;;;;;;;29.38;3.45;;;;;;;;;;4989926;28;20486;-86
2023/12/23 11:42:46;;;;;;;89.82;7.53;;;;;;;;;;4988039;28;20580;-87
2023/12/23 11:45:14;;;;;;;45.17;4.72;;;;;;;;;;4989199;28;20050;-86
2023/12/23 11:47:40;;;;;;;42.33;4.53;;;;;;;;;;4989751;28;20034;-87
2023/12/23 11:50:07;;;;;;;88.00;7.13;;;;;;;;;;4989062;28;20042;-86
2023/12/23 11:52:35;;;;;;;50.13;4.50;;;;;;;;;;4988792;28;20524;-87
2023/12/23 11:55:03;;;;;;;42.38;4.15;;;;;;;;;;4987060;28;20077;-87
2023/12/23 11:57:30;;;;;;;60.45;5.07;;;;;;;;;;4986569;28;20051;-87
2023/12/23 12:00:01;;;;;;;59.63;5.80;;;;;;;;;;4985801;28;20038;-87
2023/12/23 12:02:30;;;;;;;42.28;4.72;;;;;;;;;;4989322;28;20132;-87
2023/12/23 12:04:57;;;;;;;51.72;5.30;;;;;;;;;;4989369;28;20046;-87
2023/12/23 12:07:24;;;;;;;22.58;3.45;;;;;;;;;;4988275;28;20084;-87
2023/12/23 12:09:51;;;;;;;73.97;5.95;;;;;;;;;;4989264;28;20113;-87
2023/12/23 12:12:18;;;;;;;31.27;3.45;;;;;;;;;;4989369;28;20053;-87
2023/12/23 12:14:44;;;;;;;60.22;5.55;;;;;;;;;;4988652;28;20134;-87
2023/12/23 12:17:11;;;;;;;47.58;4.75;;;;;;;;;;4989349;28;20065;-87
2023/12/23 12:19:37;;;;;;;54.95;5.22;;;;;;;;;;4989278;28;20042;-86
2023/12/23 12:22:04;;;;;;;29.98;3.67;;;;;;;;;;4988999;28;20532;-87
2023/12/23 12:24:32;;;;;;;70.50;6.40;;;;;;;;;;4987954;28;20113;-87
2023/12/23 12:26:59;;;;;;;57.65;5.28;;;;;;;;;;4989444;28;20386;-87
2023/12/23 12:29:25;;;;;;;45.38;4.88;;;;;;;;;;4988526;28;20501;-87
2023/12/23 12:31:53;;;;;;;43.65;4.28;;;;;;;;;;4986401;28;20137;-87
2023/12/23 12:34:23;;;;;;;70.18;6.55;;;;;;;;;;4987091;28;20049;-87
2023/12/23 12:36:53;;;;;;;59.88;5.88;;;;;;;;;;4989335;28;20057;-87
2023/12/23 12:39:20;;;;;;;49.35;4.78;;;;;;;;;;4989361;28;20494;-87
2023/12/23 12:41:50;;;;;;;48.45;5.15;;;;;;;;;;4989374;28;20563;-87
2023/12/23 12:44:17;;;;;;;37.83;4.40;;;;;;;;;;4988317;28;20046;-87
2023/12/23 12:46:44;;;;;;;81.30;6.82;;;;;;;;;;4987604;28;20053;-88
2023/12/23 12:49:11;;;;;;;52.30;5.32;;;;;;;;;;4988880;28;20046;-87
2023/12/23 12:51:39;;;;;;;30.15;3.90;;;;;;;;;;4989321;28;20097;-87
2023/12/23 12:54:06;;;;;;;57.58;4.43;;;;;;;;;;4987367;28;20081;-87
2023/12/23 12:56:33;;;;;;;35.83;4.13;;;;;;;;;;4988403;28;20600;-87
2023/12/23 12:59:00;;;;;;;97.13;7.78;;;;;;;;;;4988569;28;20118;-87
2023/12/23 13:01:27;;;;;;;50.85;3.95;;;;;;;;;;4988911;28;20162;-87
2023/12/23 13:03:53;;;;;;;42.72;4.43;;;;;;;;;;4987865;28;20077;-87
2023/12/23 13:06:20;;;;;;;31.02;4.07;;;;;;;;;;4988909;28;20079;-87
2023/12/23 13:08:46;;;;;;;40.30;4.32;;;;;;;;;;4990777;28;20113;-87
2023/12/23 13:11:15;;;;;;;24.58;3.58;;;;;;;;;;4991382;28;20074;-87
2023/12/23 13:13:44;;;;;;;22.70;3.22;;;;;;;;;;4992226;28;20045;-87
2023/12/23 13:16:13;;;;;;;45.35;3.75;;;;;;;;;;4992053;28;20045;-87
2023/12/23 13:18:40;;;;;;;46.03;4.07;;;;;;;;;;4992152;28;20077;-87
2023/12/23 13:21:22;;;;;;;48.72;4.65;;;;;;;;;;4991910;28;20049;-87
2023/12/23 13:23:48;;;;;;;60.53;5.00;;;;;;;;;;4984889;28;20125;-87
2023/12/23 13:26:16;;;;;;;21.83;2.95;;;;;;;;;;4992384;28;20054;-87
2023/12/23 13:28:43;;;;;;;51.50;4.68;;;;;;;;;;4991788;28;20042;-87
2023/12/23 13:31:10;;;;;;;43.75;3.58;;;;;;;;;;4988199;28;20145;-88
2023/12/23 13:33:37;;;;;;;50.25;4.28;;;;;;;;;;4991895;28;20124;-87
2023/12/23 13:36:04;;;;;;;37.08;3.70;;;;;;;;;;4992044;28;20078;-87
2023/12/23 13:38:30;;;;;;;49.97;4.25;;;;;;;;;;4991781;28;20093;-88
2023/12/23 13:40:57;;;;;;;51.08;4.45;;;;;;;;;;4985568;28;20038;-87
2023/12/23 13:43:24;;;;;;;55.53;4.85;;;;;;;;;;4991823;28;20062;-88
2023/12/23 13:45:50;;;;;;;59.97;5.25;;;;;;;;;;4991369;28;20489;-88
2023/12/23 13:48:16;;;;;;;19.45;3.22;;;;;;;;;;4991901;28;20396;-87
2023/12/23 13:50:43;;;;;;;41.55;4.65;;;;;;;;;;4991623;28;20046;-87
2023/12/23 13:53:10;;;;;;;76.30;6.50;;;;;;;;;;4988962;28;20524;-87
2023/12/23 13:55:43;;;;;;;28.67;3.90;;;;;;;;;;4991832;28;20478;-87
2023/12/23 13:58:11;;;;;;;43.90;4.82;;;;;;;;;;4990265;28;20058;-87
2023/12/23 14:00:40;;;;;;;36.50;3.80;;;;;;;;;;4990843;28;20424;-87
2023/12/23 14:03:06;;;;;;;84.57;7.00;;;;;;;;;;4990914;28;20469;-87
2023/12/23 14:05:33;;;;;;;52.25;5.47;;;;;;;;;;4991490;28;20402;-87
2023/12/23 14:08:00;;;;;;;61.95;5.38;;;;;;;;;;4989937;28;20141;-87
2023/12/23 14:10:26;;;;;;;30.13;4.10;;;;;;;;;;4991388;28;20038;-88
2023/12/23 14:12:53;;;;;;;67.28;5.85;;;;;;;;;;4991191;28;20117;-88
2023/12/23 14:15:19;;;;;;;39.28;4.70;;;;;;;;;;4990836;28;20076;-87
2023/12/23 14:17:46;;;;;;;32.67;4.30;;;;;;;;;;4991094;28;20050;-88
2023/12/23 14:20:14;;;;;;;35.90;4.50;;;;;;;;;;4989267;28;20054;-88
2023/12/23 14:22:42;;;;;;;56.35;5.63;;;;;;;;;;4989156;28;20054;-88
2023/12/23 14:25:09;;;;;;;37.88;5.00;;;;;;;;;;4991115;28;20053;-87
2023/12/23 14:27:35;;;;;;;37.42;5.65;;;;;;;;;;4991160;28;20069;-88
2023/12/23 14:30:02;;;;;;;65.50;6.63;;;;;;;;;;4990415;28;20046;-88
2023/12/23 14:32:29;;;;;;;58.03;7.82;;;;;;;;;;4991011;28;20035;-87